Time;durP1;ratioP1;P1;durP2;ratioP2;P2;SDS_P1;SDS_P2;PMS_P1;PMS_P2;Temp;Humidity;BMP_temperature;BMP_pressure;BME280_temperature;BME280_humidity;BME280_pressure;Samples;Min_cycle;Max_cycle;Signal;HPM_P1;HPM_P2
2024/02/06 00:00:57;;;;;;;2.25;1.17;;;;;;;0.75;48.44;99000.28;5125704;28;20016;-66
2024/02/06 00:03:22;;;;;;;0.88;0.85;;;;;;;0.77;48.50;98995.19;5125232;28;20043;-67
2024/02/06 00:05:47;;;;;;;0.50;0.50;;;;;;;0.83;48.10;98995.22;5107198;28;20023;-66
2024/02/06 00:08:13;;;;;;;1.25;1.25;;;;;;;0.82;48.27;98998.59;5125161;28;20030;-66
2024/02/06 00:10:40;;;;;;;1.73;0.70;;;;;;;0.75;48.68;98995.16;5125487;28;20019;-66
2024/02/06 00:13:06;;;;;;;0.57;0.57;;;;;;;0.77;48.75;98997.72;5125404;28;20040;-67
2024/02/06 00:15:31;;;;;;;0.60;0.60;;;;;;;0.71;48.91;98986.59;5125261;28;20030;-67
2024/02/06 00:17:56;;;;;;;0.60;0.60;;;;;;;0.72;49.06;98990.00;5125432;28;20644;-67
2024/02/06 00:20:22;;;;;;;0.60;0.60;;;;;;;0.77;49.17;98992.63;5108275;28;20050;-66
2024/02/06 00:22:47;;;;;;;0.50;0.50;;;;;;;0.78;49.26;98991.78;5110934;28;20030;-66
2024/02/06 00:25:13;;;;;;;0.50;0.50;;;;;;;0.78;49.31;98991.78;5129314;28;20038;-65
2024/02/06 00:27:41;;;;;;;1.05;0.98;;;;;;;0.60;49.52;98970.31;5129418;28;20023;-65
2024/02/06 00:30:07;;;;;;;0.50;0.50;;;;;;;0.70;49.64;98992.53;5110764;28;20558;-65
2024/02/06 00:32:33;;;;;;;0.50;0.50;;;;;;;0.68;49.92;98981.47;5129321;28;20031;-65
2024/02/06 00:35:00;;;;;;;2.13;1.38;;;;;;;0.66;50.21;98978.03;5110456;28;20024;-65
2024/02/06 00:37:31;;;;;;;0.60;0.60;;;;;;;0.71;50.25;98972.97;5127995;28;20012;-65
2024/02/06 00:39:57;;;;;;;;;;;;;;;0.74;50.25;98978.09;5110258;28;20024;-65
2024/02/06 00:42:22;;;;;;;0.50;0.50;;;;;;;0.61;50.50;98956.69;5109523;28;20293;-65
2024/02/06 00:44:47;;;;;;;0.50;0.50;;;;;;;0.59;50.86;98955.84;5109569;28;20491;-65
2024/02/06 00:47:14;;;;;;;2.47;1.13;;;;;;;0.57;50.95;98953.28;5110651;28;20475;-66
2024/02/06 00:49:40;;;;;;;5.70;1.80;;;;;;;0.60;51.18;98952.44;5128922;28;20030;-65
2024/02/06 00:52:05;;;;;;;0.50;0.50;;;;;;;0.47;51.23;98933.59;5110380;28;20108;-66
2024/02/06 00:54:30;;;;;;;2.63;0.70;;;;;;;0.54;51.12;98944.72;5128886;28;20026;-65
2024/02/06 00:56:56;;;;;;;1.02;1.02;;;;;;;0.53;51.20;98935.38;5128759;28;20023;-65
2024/02/06 00:59:21;;;;;;;0.50;0.50;;;;;;;0.55;51.48;98943.88;5110306;28;20040;-65
2024/02/06 01:01:47;;;;;;;0.50;0.50;;;;;;;0.48;51.58;98940.41;5110384;28;20442;-65
2024/02/06 01:04:13;;;;;;;0.50;0.50;;;;;;;0.44;51.71;98939.56;5109960;28;20394;-67
2024/02/06 01:06:38;;;;;;;1.30;1.27;;;;;;;0.51;51.71;98932.81;5127399;28;20028;-68
2024/02/06 01:09:04;;;;;;;0.50;0.50;;;;;;;0.55;51.79;98938.78;5127252;28;20030;-68
2024/02/06 01:11:30;;;;;;;0.50;0.50;;;;;;;0.56;51.87;98940.50;5109338;28;20118;-67
2024/02/06 01:13:55;;;;;;;7.93;1.85;;;;;;;0.52;51.90;98939.63;5110372;28;20026;-68
2024/02/06 01:16:21;;;;;;;0.50;0.50;;;;;;;0.41;51.99;98936.97;5110264;28;20023;-68
2024/02/06 01:18:46;;;;;;;0.50;0.50;;;;;;;0.41;52.25;98936.97;5128500;28;20011;-69
2024/02/06 01:21:11;;;;;;;0.50;0.50;;;;;;;0.38;52.28;98931.84;5127854;28;20077;-68
2024/02/06 01:23:37;;;;;;;1.65;1.58;;;;;;;0.32;52.59;98931.78;5128431;28;20027;-68
2024/02/06 01:26:02;;;;;;;0.98;0.98;;;;;;;0.33;52.54;98939.44;5128220;28;20028;-68
2024/02/06 01:28:27;;;;;;;0.88;0.88;;;;;;;0.38;52.69;98936.94;5128256;28;20020;-68
2024/02/06 01:30:53;;;;;;;0.43;0.43;;;;;;;0.38;52.74;98930.97;5128059;28;20047;-69
2024/02/06 01:33:18;;;;;;;0.73;0.73;;;;;;;0.39;52.80;98936.09;5127341;28;20032;-69
2024/02/06 01:35:43;;;;;;;0.50;0.50;;;;;;;0.29;53.07;98930.03;5127941;28;20034;-69
2024/02/06 01:38:12;;;;;;;7.28;1.08;;;;;;;0.31;53.41;98925.81;5127881;28;20028;-68
2024/02/06 01:40:40;;;;;;;0.50;0.50;;;;;;;0.27;53.49;98923.22;5128073;28;20020;-68
2024/02/06 01:43:05;;;;;;;0.50;0.50;;;;;;;0.35;53.36;98926.69;5109561;28;20032;-68
2024/02/06 01:45:31;;;;;;;0.52;0.52;;;;;;;0.31;53.05;98915.59;5109427;28;20015;-69
2024/02/06 01:47:57;;;;;;;0.50;0.50;;;;;;;0.26;53.57;98914.69;5109480;28;20024;-68
2024/02/06 01:50:23;;;;;;;1.58;1.48;;;;;;;0.28;53.84;98914.69;5109260;28;20042;-69
2024/02/06 01:52:51;;;;;;;0.50;0.50;;;;;;;0.25;53.88;98915.53;5110140;28;20293;-68
2024/02/06 01:55:17;;;;;;;0.50;0.50;;;;;;;0.33;53.98;98923.28;5109328;28;20019;-68
2024/02/06 01:57:42;;;;;;;0.70;0.70;;;;;;;0.27;53.90;98910.44;5127721;28;20023;-69
2024/02/06 02:00:10;;;;;;;0.50;0.50;;;;;;;0.27;54.01;98915.56;5108472;28;20048;-68
2024/02/06 02:02:36;;;;;;;4.43;1.33;;;;;;;0.28;54.08;98919.81;5126592;28;20482;-68
2024/02/06 02:05:02;;;;;;;0.60;0.60;;;;;;;0.22;54.21;98916.34;5126699;28;20038;-68
2024/02/06 02:07:29;;;;;;;0.50;0.50;;;;;;;0.22;54.15;98911.25;5127298;28;20016;-68
2024/02/06 02:09:55;;;;;;;0.50;0.50;;;;;;;0.26;54.20;98912.13;5128509;28;20027;-67
2024/02/06 02:12:20;;;;;;;0.50;0.50;;;;;;;0.24;54.00;98908.72;5127903;28;20031;-68
2024/02/06 02:14:46;;;;;;;0.50;0.50;;;;;;;0.35;54.01;98916.50;5109036;28;20038;-69
2024/02/06 02:17:11;;;;;;;0.52;0.52;;;;;;;0.35;53.76;98916.50;5127153;28;20031;-68
2024/02/06 02:19:36;;;;;;;0.50;0.50;;;;;;;0.30;54.03;98911.34;5108717;28;20023;-68
2024/02/06 02:22:02;;;;;;;0.50;0.50;;;;;;;0.35;53.86;98907.13;5126941;28;20046;-68
2024/02/06 02:24:27;;;;;;;0.70;0.70;;;;;;;0.36;54.19;98905.44;5127218;28;20023;-68
2024/02/06 02:26:54;;;;;;;0.50;0.50;;;;;;;0.41;53.80;98919.09;5127075;28;20046;-68
2024/02/06 02:29:20;;;;;;;0.80;0.80;;;;;;;0.42;54.06;98918.25;5108810;28;20027;-68
2024/02/06 02:31:47;;;;;;;0.50;0.50;;;;;;;0.42;53.93;98918.25;5127241;28;20122;-68
2024/02/06 02:34:13;;;;;;;2.05;1.25;;;;;;;0.38;54.12;98903.75;5108354;28;20023;-68
2024/02/06 02:36:39;;;;;;;5.78;1.02;;;;;;;0.40;53.98;98898.66;5108357;28;20031;-68
2024/02/06 02:39:04;;;;;;;2.60;1.30;;;;;;;0.38;54.15;98896.09;5126998;28;20012;-68
2024/02/06 02:41:30;;;;;;;1.23;0.88;;;;;;;0.42;54.02;98905.47;5126939;28;20075;-68
2024/02/06 02:43:56;;;;;;;3.45;1.40;;;;;;;0.35;54.22;98883.31;5126744;28;20051;-68
2024/02/06 02:46:21;;;;;;;1.25;1.13;;;;;;;0.39;54.15;98892.69;5126763;28;20111;-68
2024/02/06 02:48:46;;;;;;;0.50;0.50;;;;;;;0.39;54.46;98892.69;5126794;28;20020;-67
2024/02/06 02:51:12;;;;;;;0.50;0.50;;;;;;;0.31;54.35;98858.56;5126752;28;20035;-67
2024/02/06 02:53:37;;;;;;;1.80;1.40;;;;;;;0.39;54.36;98873.94;5126956;28;20037;-68
2024/02/06 02:56:03;;;;;;;2.33;1.67;;;;;;;0.38;54.37;98870.56;5126411;28;20019;-68
2024/02/06 02:58:28;;;;;;;0.60;0.60;;;;;;;0.29;54.48;98865.38;5126057;28;20032;-67
2024/02/06 03:00:53;;;;;;;1.40;1.30;;;;;;;0.30;54.60;98867.06;5126522;28;20126;-68
2024/02/06 03:03:19;;;;;;;0.93;0.93;;;;;;;0.29;54.52;98861.09;5126258;28;20031;-67
2024/02/06 03:05:44;;;;;;;0.50;0.50;;;;;;;0.30;54.66;98852.63;5108105;28;20023;-67
2024/02/06 03:08:09;;;;;;;0.50;0.50;;;;;;;0.17;54.94;98844.00;5126149;28;20024;-67
2024/02/06 03:10:35;;;;;;;2.85;1.10;;;;;;;0.16;55.22;98849.94;5126390;28;20023;-67
2024/02/06 03:13:00;;;;;;;0.70;0.70;;;;;;;0.16;55.28;98836.34;5126145;28;20482;-67
2024/02/06 03:15:25;;;;;;;0.50;0.50;;;;;;;0.18;55.29;98832.06;5126375;28;20024;-68
2024/02/06 03:17:54;;;;;;;0.50;0.50;;;;;;;0.20;55.25;98825.31;5126360;28;20016;-67
2024/02/06 03:20:19;;;;;;;0.50;0.50;;;;;;;0.11;55.35;98814.16;5125971;28;20030;-67
2024/02/06 03:22:45;;;;;;;0.77;0.75;;;;;;;0.16;55.42;98826.97;5107512;28;20023;-67
2024/02/06 03:25:10;;;;;;;0.52;0.52;;;;;;;0.14;55.52;98831.22;5126061;28;20459;-67
2024/02/06 03:27:38;;;;;;;0.50;0.50;;;;;;;0.10;56.28;98834.56;5107469;28;20020;-68
2024/02/06 03:30:04;;;;;;;0.43;0.43;;;;;;;0.11;55.80;98811.63;5107756;28;20049;-68
2024/02/06 03:32:30;;;;;;;0.47;0.47;;;;;;;0.15;55.81;98809.94;5125826;28;20057;-67
2024/02/06 03:34:56;;;;;;;0.50;0.50;;;;;;;0.15;55.83;98806.53;5107392;28;20028;-67
2024/02/06 03:37:21;;;;;;;0.50;0.50;;;;;;;0.13;55.79;98803.97;5125564;28;20020;-68
2024/02/06 03:39:47;;;;;;;0.60;0.60;;;;;;;0.09;56.01;98803.09;5125390;28;20037;-67
2024/02/06 03:42:12;;;;;;;2.13;1.92;;;;;;;0.06;56.15;98802.22;5125681;28;20023;-67
2024/02/06 03:44:38;;;;;;;0.65;0.65;;;;;;;0.02;56.31;98796.22;5125633;28;20040;-67
2024/02/06 03:47:03;;;;;;;0.50;0.50;;;;;;;0.06;56.31;98789.47;5125563;28;20024;-67
2024/02/06 03:49:29;;;;;;;0.50;0.50;;;;;;;0.07;56.33;98783.50;5125410;28;20047;-67
2024/02/06 03:51:54;;;;;;;0.50;0.50;;;;;;;0.05;56.42;98780.94;5125541;28;20016;-67
2024/02/06 03:54:20;;;;;;;3.22;1.10;;;;;;;0.07;56.51;98774.16;5125487;28;20467;-67
2024/02/06 03:56:45;;;;;;;0.50;0.50;;;;;;;0.05;56.70;98780.09;5125395;28;20042;-68
2024/02/06 03:59:10;;;;;;;0.75;0.75;;;;;;;0.04;56.80;98784.34;5125418;28;20066;-67
2024/02/06 04:01:38;;;;;;;0.50;0.50;;;;;;;0.01;57.07;98780.91;5125440;28;20126;-68
2024/02/06 04:04:03;;;;;;;0.82;0.82;;;;;;;-0.02;57.12;98792.78;5125305;28;20020;-67
2024/02/06 04:06:29;;;;;;;0.52;0.52;;;;;;;-0.04;57.28;98781.72;5125517;28;20049;-67
2024/02/06 04:08:54;;;;;;;0.52;0.52;;;;;;;-0.03;57.38;98780.88;5125557;28;20482;-67
2024/02/06 04:11:20;;;;;;;1.35;0.93;;;;;;;-0.04;57.66;98771.53;5125507;28;20182;-69
2024/02/06 04:13:45;;;;;;;3.22;2.63;;;;;;;-0.01;57.60;98778.34;5125471;28;20374;-68
2024/02/06 04:16:10;;;;;;;1.40;0.88;;;;;;;-0.02;57.50;98787.69;5125309;28;20019;-68
2024/02/06 04:18:36;;;;;;;1.23;1.13;;;;;;;-0.16;57.79;98782.47;5125468;28;20098;-67
2024/02/06 04:21:02;;;;;;;0.65;0.60;;;;;;;-0.10;57.85;98781.69;5125388;28;20024;-68
2024/02/06 04:23:27;;;;;;;3.75;1.85;;;;;;;-0.01;57.68;98791.97;5125316;28;20023;-69
2024/02/06 04:25:52;;;;;;;25.73;1.35;;;;;;;-0.02;57.69;98774.09;5106947;28;20038;-68
2024/02/06 04:28:19;;;;;;;0.60;0.55;;;;;;;0.05;57.59;98780.94;5125349;28;20024;-68
2024/02/06 04:30:44;;;;;;;0.98;0.98;;;;;;;-0.01;57.75;98774.09;5125209;28;20020;-68
2024/02/06 04:33:09;;;;;;;0.82;0.82;;;;;;;0.10;57.66;98791.19;5125528;28;20020;-68
2024/02/06 04:35:36;;;;;;;8.25;1.65;;;;;;;0.08;57.58;98790.34;5106794;28;20028;-69
2024/02/06 04:38:02;;;;;;;0.55;0.55;;;;;;;0.11;57.78;98790.38;5125091;28;20051;-67
2024/02/06 04:40:28;;;;;;;2.05;1.05;;;;;;;0.08;57.70;98788.63;5125333;28;20019;-67
2024/02/06 04:42:53;;;;;;;0.50;0.50;;;;;;;0.07;57.82;98791.16;5125269;28;20047;-68
2024/02/06 04:45:18;;;;;;;0.57;0.57;;;;;;;0.03;57.75;98775.00;5125123;28;20039;-68
2024/02/06 04:47:44;;;;;;;0.50;0.50;;;;;;;-0.01;57.96;98760.47;5106713;28;20055;-68
2024/02/06 04:50:09;;;;;;;4.00;1.13;;;;;;;0.02;58.06;98777.53;5124650;28;20046;-68
2024/02/06 04:52:35;;;;;;;2.03;1.92;;;;;;;-0.04;58.01;98773.22;5124772;28;20019;-68
2024/02/06 04:55:01;;;;;;;0.60;0.60;;;;;;;-0.06;58.12;98764.69;5106656;28;20031;-68
2024/02/06 04:57:26;;;;;;;0.60;0.60;;;;;;;-0.06;58.46;98768.09;5124970;28;20026;-68
2024/02/06 04:59:52;;;;;;;0.60;0.60;;;;;;;-0.06;58.17;98765.56;5124695;28;20060;-69
2024/02/06 05:02:17;;;;;;;0.93;0.80;;;;;;;-0.04;58.39;98770.66;5124862;28;20027;-68
2024/02/06 05:04:43;;;;;;;0.98;0.80;;;;;;;-0.08;58.24;98756.19;5124604;28;20507;-68
2024/02/06 05:07:09;;;;;;;0.85;0.80;;;;;;;-0.08;58.44;98749.38;5107061;28;20030;-68
2024/02/06 05:09:34;;;;;;;0.93;0.55;;;;;;;-0.03;58.27;98760.47;5110175;28;20020;-68
2024/02/06 05:12:02;;;;;;;0.52;0.52;;;;;;;-0.03;58.28;98754.50;5128536;28;20045;-67
2024/02/06 05:14:30;;;;;;;0.60;0.60;;;;;;;-0.01;58.36;98746.03;5128746;28;20100;-67
2024/02/06 05:16:55;;;;;;;0.50;0.50;;;;;;;-0.01;58.46;98737.53;5128599;28;20019;-67
2024/02/06 05:19:21;;;;;;;0.73;0.60;;;;;;;-0.08;58.40;98735.78;5110135;28;20024;-67
2024/02/06 05:21:47;;;;;;;0.50;0.50;;;;;;;-0.07;58.40;98730.69;5128166;28;20144;-67
2024/02/06 05:24:12;;;;;;;0.50;0.50;;;;;;;-0.02;58.50;98733.28;5110154;28;20020;-67
2024/02/06 05:26:38;;;;;;;0.93;0.93;;;;;;;0.02;58.39;98729.06;5128464;28;20027;-68
2024/02/06 05:29:05;;;;;;;1.13;1.13;;;;;;;-0.08;58.55;98713.66;5128073;28;20026;-68
2024/02/06 05:31:30;;;;;;;0.50;0.50;;;;;;;-0.07;58.65;98715.38;5128242;28;20024;-67
2024/02/06 05:33:55;;;;;;;1.33;1.23;;;;;;;-0.04;58.65;98710.28;5109290;28;20051;-69
2024/02/06 05:36:21;;;;;;;0.50;0.50;;;;;;;-0.06;58.65;98701.78;5127831;28;20026;-68
2024/02/06 05:38:46;;;;;;;0.95;0.85;;;;;;;-0.08;58.69;98693.25;5127520;28;20106;-69
2024/02/06 05:41:15;;;;;;;0.50;0.50;;;;;;;-0.20;58.61;98671.06;5109408;28;20039;-68
2024/02/06 05:43:40;;;;;;;9.95;1.00;;;;;;;-0.06;58.67;98691.56;5128078;28;20036;-69
2024/02/06 05:46:05;;;;;;;0.65;0.65;;;;;;;-0.07;58.61;98689.00;5128048;28;20028;-69
2024/02/06 05:48:31;;;;;;;0.50;0.50;;;;;;;0.00;58.71;98688.22;5109535;28;20035;-68
2024/02/06 05:50:59;;;;;;;2.13;1.95;;;;;;;-0.03;58.79;98683.06;5127982;28;20034;-68
2024/02/06 05:53:24;;;;;;;1.23;1.13;;;;;;;0.02;58.81;98683.13;5127852;28;20023;-68
2024/02/06 05:55:50;;;;;;;0.50;0.50;;;;;;;-0.04;58.80;98684.78;5127816;28;20027;-68
2024/02/06 05:58:15;;;;;;;0.55;0.55;;;;;;;-0.03;58.93;98675.41;5108924;28;20374;-69
2024/02/06 06:00:41;;;;;;;0.50;0.50;;;;;;;-0.10;59.15;98661.78;5126958;28;20360;-68
2024/02/06 06:03:06;;;;;;;11.77;2.15;;;;;;;-0.11;59.13;98654.94;5126364;28;20087;-69
2024/02/06 06:05:33;;;;;;;1.20;1.10;;;;;;;-0.12;59.19;98658.34;5108876;28;20020;-69
2024/02/06 06:07:59;;;;;;;6.68;1.38;;;;;;;-0.11;59.37;98667.72;5109023;28;20028;-69
2024/02/06 06:10:24;;;;;;;0.60;0.60;;;;;;;-0.13;59.52;98670.25;5127804;28;20024;-69
2024/02/06 06:12:49;;;;;;;1.63;1.02;;;;;;;-0.16;59.48;98656.66;5109083;28;20039;-69
2024/02/06 06:15:15;;;;;;;0.70;0.70;;;;;;;-0.09;59.72;98660.06;5109198;28;20024;-68
2024/02/06 06:17:40;;;;;;;3.50;0.82;;;;;;;-0.12;59.69;98658.34;5126943;28;20015;-68
2024/02/06 06:20:07;;;;;;;0.88;0.88;;;;;;;-0.10;59.65;98649.03;5127289;28;20351;-69
2024/02/06 06:22:32;;;;;;;0.55;0.55;;;;;;;-0.09;59.71;98645.63;5127149;28;20027;-69
2024/02/06 06:24:57;;;;;;;0.50;0.50;;;;;;;-0.23;59.60;98640.44;5127218;28;20496;-69
2024/02/06 06:27:23;;;;;;;2.30;1.85;;;;;;;-0.18;59.80;98648.97;5108692;28;20106;-69
2024/02/06 06:29:48;;;;;;;11.23;1.50;;;;;;;-0.15;59.75;98656.66;5127087;28;20023;-68
2024/02/06 06:32:14;;;;;;;0.60;0.60;;;;;;;-0.11;59.84;98647.28;5108527;28;20045;-68
2024/02/06 06:34:40;;;;;;;0.77;0.77;;;;;;;-0.14;59.89;98644.72;5126894;28;20049;-67
2024/02/06 06:37:06;;;;;;;0.60;0.60;;;;;;;-0.19;59.67;98623.47;5108365;28;20053;-67
2024/02/06 06:39:32;;;;;;;0.50;0.50;;;;;;;-0.09;59.75;98629.44;5108701;28;20024;-67
2024/02/06 06:41:58;;;;;;;0.70;0.70;;;;;;;-0.12;59.82;98622.66;5126781;28;20019;-68
2024/02/06 06:44:23;;;;;;;0.50;0.50;;;;;;;-0.11;60.03;98621.78;5126960;28;20319;-69
2024/02/06 06:46:49;;;;;;;2.80;1.95;;;;;;;-0.16;60.16;98628.59;5108321;28;20038;-68
2024/02/06 06:49:15;;;;;;;8.95;2.83;;;;;;;-0.25;60.35;98624.25;5126550;28;20020;-68
2024/02/06 06:51:42;;;;;;;0.63;0.63;;;;;;;-0.19;60.51;98633.66;5126333;28;20027;-67
2024/02/06 06:54:08;;;;;;;0.47;0.47;;;;;;;-0.25;60.54;98624.25;5126966;28;20086;-67
2024/02/06 06:56:33;;;;;;;5.38;1.35;;;;;;;-0.26;60.59;98641.25;5126734;28;20480;-68
2024/02/06 06:58:58;;;;;;;0.73;0.73;;;;;;;-0.25;60.78;98637.00;5108215;28;20036;-68
2024/02/06 07:01:24;;;;;;;0.57;0.57;;;;;;;-0.27;61.01;98628.47;5108390;28;20019;-68
2024/02/06 07:03:50;;;;;;;0.50;0.50;;;;;;;-0.29;60.82;98625.94;5108435;28;20471;-67
2024/02/06 07:06:16;;;;;;;0.50;0.50;;;;;;;-0.28;61.22;98625.09;5108301;28;20045;-68
2024/02/06 07:08:41;;;;;;;2.35;2.25;;;;;;;-0.30;61.32;98628.47;5126420;28;20511;-67
2024/02/06 07:11:06;;;;;;;0.68;0.68;;;;;;;-0.28;61.35;98619.13;5126738;28;20106;-69
2024/02/06 07:13:32;;;;;;;0.60;0.60;;;;;;;-0.28;61.23;98614.91;5126611;28;20031;-68
2024/02/06 07:15:57;;;;;;;0.50;0.50;;;;;;;-0.27;61.41;98616.59;5108053;28;20027;-67
2024/02/06 07:18:22;;;;;;;2.05;1.23;;;;;;;-0.23;61.51;98611.50;5126490;28;20019;-69
2024/02/06 07:20:49;;;;;;;0.50;0.50;;;;;;;-0.23;61.52;98598.75;5126569;28;20035;-69
2024/02/06 07:23:14;;;;;;;0.77;0.77;;;;;;;-0.28;61.74;98612.34;5126377;28;20046;-68
2024/02/06 07:25:40;;;;;;;0.70;0.70;;;;;;;-0.29;61.97;98615.72;5108072;28;20031;-68
2024/02/06 07:28:05;;;;;;;0.50;0.50;;;;;;;-0.29;62.00;98599.59;5126404;28;20023;-68
2024/02/06 07:30:31;;;;;;;0.60;0.60;;;;;;;-0.30;62.20;98595.31;5125628;28;20020;-68
2024/02/06 07:32:56;;;;;;;0.50;0.50;;;;;;;-0.40;62.48;98574.03;5126389;28;20464;-68
2024/02/06 07:35:22;;;;;;;0.65;0.65;;;;;;;-0.31;62.60;98591.94;5125923;28;20028;-68
2024/02/06 07:37:47;;;;;;;0.45;0.45;;;;;;;-0.41;62.84;98575.72;5125823;28;20103;-69
2024/02/06 07:40:12;;;;;;;0.85;0.85;;;;;;;-0.40;62.95;98586.78;5126036;28;20023;-67
2024/02/06 07:42:38;;;;;;;0.50;0.50;;;;;;;-0.42;63.19;98578.25;5125940;28;20458;-69
2024/02/06 07:45:04;;;;;;;0.50;0.50;;;;;;;-0.34;63.25;98571.50;5107763;28;20027;-67
2024/02/06 07:47:30;;;;;;;0.60;0.60;;;;;;;-0.48;63.49;98568.00;5107199;28;20084;-67
2024/02/06 07:49:56;;;;;;;0.50;0.50;;;;;;;-0.50;63.97;98552.72;5125929;28;20097;-67
2024/02/06 07:52:21;;;;;;;0.50;0.50;;;;;;;-0.47;64.15;98567.16;5125617;28;20031;-66
2024/02/06 07:54:47;;;;;;;0.50;0.50;;;;;;;-0.50;64.18;98552.72;5125949;28;20019;-68
2024/02/06 07:57:13;;;;;;;0.88;0.88;;;;;;;-0.54;64.41;98551.81;5107444;28;20019;-68
2024/02/06 07:59:38;;;;;;;0.50;0.50;;;;;;;-0.47;64.40;98551.88;5107167;28;20483;-68
2024/02/06 08:02:05;;;;;;;0.60;0.60;;;;;;;-0.45;64.55;98547.63;5125669;28;20128;-68
2024/02/06 08:04:31;;;;;;;0.60;0.60;;;;;;;-0.43;64.56;98539.13;5107177;28;20091;-67
2024/02/06 08:06:56;;;;;;;0.93;0.90;;;;;;;-0.41;64.69;98536.59;5125451;28;20026;-68
2024/02/06 08:09:23;;;;;;;0.50;0.50;;;;;;;-0.42;64.63;98535.75;5107411;28;20058;-68
2024/02/06 08:11:49;;;;;;;0.70;0.70;;;;;;;-0.37;64.23;98530.69;5125742;28;20020;-68
2024/02/06 08:14:16;;;;;;;1.10;1.10;;;;;;;-0.34;64.64;98533.25;5107311;28;20019;-68
2024/02/06 08:16:42;;;;;;;0.55;0.55;;;;;;;-0.25;64.58;98529.88;5125371;28;20034;-68
2024/02/06 08:19:08;;;;;;;0.50;0.50;;;;;;;-0.29;64.57;98529.00;5125647;28;20023;-67
2024/02/06 08:21:34;;;;;;;0.43;0.43;;;;;;;-0.31;64.78;98517.97;5125121;28;20028;-67
2024/02/06 08:23:59;;;;;;;0.70;0.70;;;;;;;-0.30;64.78;98517.13;5125686;28;20125;-67
2024/02/06 08:26:24;;;;;;;0.50;0.50;;;;;;;-0.11;64.50;98504.44;5107191;28;20401;-68
2024/02/06 08:28:50;;;;;;;2.72;0.70;;;;;;;-0.24;64.42;98501.00;5125426;28;20027;-68
2024/02/06 08:31:16;;;;;;;0.70;0.70;;;;;;;-0.23;64.54;98499.28;5107087;28;20024;-67
2024/02/06 08:33:44;;;;;;;1.33;1.30;;;;;;;-0.20;64.67;98489.09;5125421;28;20027;-67
2024/02/06 08:36:13;;;;;;;1.35;1.25;;;;;;;-0.39;64.89;98481.38;5125197;28;20026;-67
2024/02/06 08:38:38;;;;;;;0.50;0.50;;;;;;;-0.26;64.99;98478.03;5125024;28;20073;-68
2024/02/06 08:41:04;;;;;;;0.55;0.55;;;;;;;-0.27;64.85;98489.06;5126333;28;20027;-68
2024/02/06 08:43:30;;;;;;;11.60;1.50;;;;;;;-0.32;65.17;98488.19;5129414;28;20023;-68
2024/02/06 08:45:56;;;;;;;0.50;0.50;;;;;;;-0.21;64.94;98482.31;5129407;28;20023;-69
2024/02/06 08:48:21;;;;;;;0.50;0.50;;;;;;;-0.22;65.01;98475.50;5129332;28;20026;-68
2024/02/06 08:50:49;;;;;;;1.60;0.98;;;;;;;-0.34;65.37;98456.75;5129194;28;20387;-67
2024/02/06 08:53:15;;;;;;;0.55;0.55;;;;;;;-0.32;65.49;98451.66;5129160;28;20019;-68
2024/02/06 08:55:40;;;;;;;0.50;0.50;;;;;;;-0.16;65.15;98461.06;5129131;28;20024;-67
2024/02/06 08:58:06;;;;;;;0.73;0.73;;;;;;;-0.20;65.14;98449.16;5129487;28;20080;-68
2024/02/06 09:00:31;;;;;;;1.63;0.63;;;;;;;-0.16;65.23;98445.75;5129134;28;20281;-68
2024/02/06 09:02:56;;;;;;;0.50;0.50;;;;;;;-0.23;65.36;98426.19;5128973;28;20019;-68
2024/02/06 09:05:22;;;;;;;1.95;0.90;;;;;;;-0.18;65.41;98418.56;5128915;28;20103;-68
2024/02/06 09:07:47;;;;;;;0.50;0.50;;;;;;;-0.16;65.19;98425.34;5128687;28;20459;-67
2024/02/06 09:10:12;;;;;;;2.47;1.67;;;;;;;-0.15;65.63;98442.38;5128827;28;20054;-68
2024/02/06 09:12:38;;;;;;;0.50;0.50;;;;;;;-0.02;65.18;98429.66;5128797;28;20027;-67
2024/02/06 09:15:03;;;;;;;0.60;0.60;;;;;;;-0.01;65.16;98421.16;5110182;28;20524;-68
2024/02/06 09:17:30;;;;;;;0.88;0.88;;;;;;;-0.09;65.54;98427.91;5110138;28;20024;-68
2024/02/06 09:19:56;;;;;;;0.50;0.50;;;;;;;0.07;65.30;98427.13;5128838;28;20020;-69
2024/02/06 09:22:21;;;;;;;0.50;0.50;;;;;;;-0.07;65.48;98427.09;5128362;28;20019;-68
2024/02/06 09:24:46;;;;;;;0.63;0.63;;;;;;;-0.03;65.66;98410.06;5128619;28;20023;-68
2024/02/06 09:27:12;;;;;;;0.50;0.50;;;;;;;0.20;65.64;98399.06;5128480;28;20392;-69
2024/02/06 09:29:37;;;;;;;0.60;0.60;;;;;;;0.06;65.81;98386.28;5128345;28;20024;-68
2024/02/06 09:32:03;;;;;;;2.95;1.02;;;;;;;-0.09;66.26;98393.06;5128514;28;20043;-67
2024/02/06 09:34:28;;;;;;;0.85;0.82;;;;;;;-0.13;66.80;98383.72;5128581;28;20027;-68
2024/02/06 09:36:53;;;;;;;0.50;0.50;;;;;;;0.04;66.40;98391.41;5127859;28;20043;-67
2024/02/06 09:39:19;;;;;;;0.50;0.50;;;;;;;0.13;66.54;98384.59;5128505;28;20024;-68
2024/02/06 09:41:46;;;;;;;0.50;0.50;;;;;;;0.11;66.85;98382.06;5128159;28;20314;-69
2024/02/06 09:44:12;;;;;;;0.50;0.50;;;;;;;0.10;66.86;98353.13;5110063;28;20035;-67
2024/02/06 09:46:37;;;;;;;1.02;1.02;;;;;;;-0.03;67.30;98347.16;5128266;28;20020;-67
2024/02/06 09:49:03;;;;;;;0.60;0.60;;;;;;;0.07;67.61;98340.38;5128172;28;20034;-68
2024/02/06 09:51:32;;;;;;;0.70;0.70;;;;;;;0.19;67.50;98331.84;5109504;28;20026;-69
2024/02/06 09:53:58;;;;;;;0.50;0.50;;;;;;;0.58;66.46;98316.53;5127213;28;20031;-69
2024/02/06 09:56:35;;;;;;;0.70;0.70;;;;;;;0.49;67.24;98332.72;5127986;28;20421;-69
2024/02/06 09:59:05;;;;;;;0.50;0.50;;;;;;;0.23;67.49;98320.81;5127861;28;20488;-68
2024/02/06 10:01:35;;;;;;;0.50;0.50;;;;;;;0.09;68.40;98318.25;5127718;28;20088;-67
2024/02/06 10:04:03;;;;;;;0.50;0.50;;;;;;;0.16;68.38;98319.09;5109705;28;20024;-69
2024/02/06 10:06:30;;;;;;;16.42;3.58;;;;;;;0.31;68.24;98317.38;5127870;28;20019;-68
2024/02/06 10:08:57;;;;;;;0.50;0.50;;;;;;;0.26;68.03;98314.00;5127480;28;20109;-68
2024/02/06 10:11:23;;;;;;;0.52;0.52;;;;;;;0.47;67.87;98298.66;5127741;28;20015;-70
2024/02/06 10:13:49;;;;;;;0.63;0.63;;;;;;;0.16;68.10;98344.63;5127808;28;20016;-69
2024/02/06 10:16:14;;;;;;;0.50;0.50;;;;;;;0.11;68.55;98331.03;5127640;28;20025;-68
2024/02/06 10:18:53;;;;;;;0.50;0.50;;;;;;;0.35;68.04;98335.25;5127690;28;20416;-70
2024/02/06 10:21:19;;;;;;;0.50;0.50;;;;;;;0.07;68.71;98319.09;5109127;28;20020;-69
2024/02/06 10:23:45;;;;;;;0.50;0.50;;;;;;;0.19;68.64;98296.13;5127365;28;20030;-69
2024/02/06 10:26:10;;;;;;;0.93;0.93;;;;;;;0.10;69.04;98299.53;5127509;28;20079;-68
2024/02/06 10:28:36;;;;;;;0.50;0.50;;;;;;;0.06;69.05;98307.19;5109105;28;20050;-69
2024/02/06 10:31:10;;;;;;;1.08;1.08;;;;;;;0.09;69.18;98295.31;5127269;28;20027;-69
2024/02/06 10:33:35;;;;;;;1.42;1.25;;;;;;;0.14;69.22;98279.13;5127328;28;20498;-68
2024/02/06 10:36:01;;;;;;;0.47;0.47;;;;;;;0.15;69.22;98248.50;5126968;28;20023;-68
2024/02/06 10:38:27;;;;;;;0.52;0.52;;;;;;;0.16;69.42;98262.13;5108592;28;20025;-68
2024/02/06 10:40:53;;;;;;;1.60;1.50;;;;;;;0.16;69.52;98250.19;5108882;28;20091;-69
2024/02/06 10:43:18;;;;;;;0.57;0.57;;;;;;;0.24;69.53;98242.53;5108617;28;20027;-69
2024/02/06 10:45:44;;;;;;;0.50;0.50;;;;;;;0.52;68.51;98251.84;5126969;28;20023;-69
2024/02/06 10:48:10;;;;;;;0.60;0.60;;;;;;;0.32;69.17;98237.44;5127006;28;20075;-69
2024/02/06 10:50:36;;;;;;;0.60;0.60;;;;;;;0.22;69.47;98227.22;5127025;28;20042;-68
2024/02/06 10:53:04;;;;;;;0.50;0.50;;;;;;;0.31;69.68;98211.03;5108460;28;20027;-69
2024/02/06 10:55:30;;;;;;;1.02;1.02;;;;;;;0.27;69.23;98198.28;5126784;28;20080;-69
2024/02/06 10:58:06;;;;;;;0.50;0.50;;;;;;;0.40;69.24;98222.94;5126639;28;20024;-69
2024/02/06 11:00:38;;;;;;;0.60;0.60;;;;;;;0.46;68.96;98225.47;5126792;28;20086;-68
2024/02/06 11:03:09;;;;;;;0.43;0.43;;;;;;;0.23;69.60;98244.25;5126730;28;20027;-68
2024/02/06 11:05:37;;;;;;;0.70;0.70;;;;;;;0.27;69.90;98234.03;5125799;28;20047;-68
2024/02/06 11:08:12;;;;;;;0.60;0.60;;;;;;;0.34;69.80;98212.72;5126352;28;20028;-68
2024/02/06 11:10:45;;;;;;;0.50;0.50;;;;;;;0.19;70.37;98211.91;5126772;28;20020;-69
2024/02/06 11:13:22;;;;;;;0.60;0.60;;;;;;;0.13;70.62;98211.09;5126479;28;20031;-69
2024/02/06 11:15:49;;;;;;;0.60;0.60;;;;;;;0.10;70.92;98186.41;5108001;28;20028;-66
2024/02/06 11:18:18;;;;;;;0.50;0.50;;;;;;;0.05;71.35;98185.59;5126419;28;20470;-68
2024/02/06 11:20:46;;;;;;;0.50;0.50;;;;;;;0.06;71.51;98182.19;5126386;28;20027;-66
2024/02/06 11:23:18;;;;;;;0.50;0.50;;;;;;;-0.02;71.69;98170.25;5126105;28;20019;-67
2024/02/06 11:25:46;;;;;;;0.57;0.57;;;;;;;-0.11;71.91;98162.63;5126421;28;20031;-68
2024/02/06 11:28:14;;;;;;;0.50;0.50;;;;;;;-0.02;72.30;98190.69;5107862;28;20428;-68
2024/02/06 11:30:41;;;;;;;0.50;0.50;;;;;;;-0.11;72.62;98190.69;5126303;28;20028;-68
2024/02/06 11:33:09;;;;;;;0.50;0.50;;;;;;;-0.19;73.28;98180.50;5126231;28;20073;-68